Time,TemperatureF,DewpointF,PressureIn,WindDirection,WindDirectionDegrees,WindSpeedMPH,WindSpeedGustMPH,Humidity,HourlyPrecipIn,Conditions,Clouds,dailyrainin,SoftwareType,DateUTC
2013-02-14 00:00:00,23.4,20.6,27.79,East,90,0.2,0.2,89,0.00,,,0.00,WUHU216HW,2013-02-14 08:00:00,
2013-02-14 00:05:00,23.4,20.9,27.79,East,90,0.0,0.2,90,0.00,,,0.00,WUHU216HW,2013-02-14 08:05:00,
2013-02-14 00:10:00,23.4,20.6,27.79,East,90,0.0,0.2,89,0.00,,,0.00,WUHU216HW,2013-02-14 08:10:00,
2013-02-14 00:15:00,23.2,20.4,27.79,East,90,0.0,0.0,89,0.00,,,0.00,WUHU216HW,2013-02-14 08:15:00,
2013-02-14 00:20:00,23.0,20.5,27.79,East,90,0.0,0.0,90,0.00,,,0.00,WUHU216HW,2013-02-14 08:20:00,
2013-02-14 00:25:00,22.9,20.3,27.79,East,90,0.0,0.0,90,0.00,,,0.00,WUHU216HW,2013-02-14 08:25:00,
2013-02-14 00:30:00,22.9,20.3,27.79,East,90,0.0,0.0,90,0.00,,,0.00,WUHU216HW,2013-02-14 08:30:00,
2013-02-14 00:35:00,22.7,20.2,27.80,East,90,0.0,0.0,90,0.00,,,0.00,WUHU216HW,2013-02-14 08:35:00,
2013-02-14 00:40:00,22.7,20.2,27.80,ENE,68,0.0,0.0,90,0.00,,,0.00,WUHU216HW,2013-02-14 08:40:00,
2013-02-14 00:45:00,22.7,20.2,27.80,NE,45,0.0,0.0,90,0.00,,,0.00,WUHU216HW,2013-02-14 08:45:00,
2013-02-14 00:50:00,22.7,20.2,27.80,ENE,68,0.0,0.0,90,0.00,,,0.00,WUHU216HW,2013-02-14 08:50:00,
2013-02-14 00:55:00,22.7,20.4,27.80,SE,135,0.2,0.2,91,0.00,,,0.00,WUHU216HW,2013-02-14 08:55:00,
2013-02-14 01:00:00,22.3,19.8,27.80,ESE,113,0.0,0.2,90,0.00,,,0.00,WUHU216HW,2013-02-14 09:00:00,
2013-02-14 01:05:00,22.3,19.8,27.80,ESE,113,0.0,0.4,90,0.00,,,0.00,WUHU216HW,2013-02-14 09:05:00,
2013-02-14 01:10:00,22.0,19.4,27.81,ESE,113,0.0,0.4,90,0.00,,,0.00,WUHU216HW,2013-02-14 09:10:00,
2013-02-14 01:15:00,22.0,19.4,27.81,East,90,0.0,0.2,90,0.00,,,0.00,WUHU216HW,2013-02-14 09:15:00,
2013-02-14 01:20:00,22.0,19.4,27.81,East,90,0.0,0.2,90,0.00,,,0.00,WUHU216HW,2013-02-14 09:20:00,
2013-02-14 01:25:00,22.0,19.4,27.81,ESE,113,0.0,0.2,90,0.00,,,0.00,WUHU216HW,2013-02-14 09:25:00,
2013-02-14 01:30:00,22.0,19.4,27.81,East,90,0.0,0.2,90,0.00,,,0.00,WUHU216HW,2013-02-14 09:30:00,
2013-02-14 01:35:00,21.8,19.5,27.82,SE,135,0.4,0.4,91,0.00,,,0.00,WUHU216HW,2013-02-14 09:35:00,
2013-02-14 01:40:00,21.6,19.1,27.82,SE,135,0.0,0.4,90,0.00,,,0.00,WUHU216HW,2013-02-14 09:40:00,
2013-02-14 01:45:00,21.4,18.9,27.82,ESE,113,0.0,0.0,90,0.00,,,0.00,WUHU216HW,2013-02-14 09:45:00,
2013-02-14 01:50:00,21.2,18.7,27.82,ESE,113,0.0,0.0,90,0.00,,,0.00,WUHU216HW,2013-02-14 09:50:00,
2013-02-14 01:55:00,21.2,18.7,27.82,East,90,0.0,0.0,90,0.00,,,0.00,WUHU216HW,2013-02-14 09:55:00,
2013-02-14 02:00:00,21.4,19.2,27.82,East,90,0.0,0.0,91,0.00,,,0.00,WUHU216HW,2013-02-14 10:00:00,
2013-02-14 02:05:00,21.4,19.2,27.82,ESE,113,0.7,0.7,91,0.00,,,0.00,WUHU216HW,2013-02-14 10:05:00,
2013-02-14 02:10:00,21.2,19.0,27.83,ESE,113,0.0,0.7,91,0.00,,,0.00,WUHU216HW,2013-02-14 10:10:00,
2013-02-14 02:15:00,21.2,18.7,27.82,ESE,113,0.0,0.4,90,0.00,,,0.00,WUHU216HW,2013-02-14 10:15:00,
2013-02-14 02:20:00,21.1,18.5,27.83,ESE,113,0.0,0.0,90,0.00,,,0.00,WUHU216HW,2013-02-14 10:20:00,
2013-02-14 02:25:00,20.9,18.4,27.83,ESE,113,0.4,0.4,90,0.00,,,0.00,WUHU216HW,2013-02-14 10:25:00,
2013-02-14 02:30:00,20.9,18.4,27.83,ENE,68,0.4,0.4,90,0.00,,,0.00,WUHU216HW,2013-02-14 10:30:00,
2013-02-14 02:35:00,20.9,18.6,27.83,East,90,0.0,0.4,91,0.00,,,0.00,WUHU216HW,2013-02-14 10:35:00,
2013-02-14 02:40:00,20.7,18.5,27.83,East,90,0.0,0.4,91,0.00,,,0.00,WUHU216HW,2013-02-14 10:40:00,
2013-02-14 02:45:00,20.7,18.5,27.83,East,90,0.0,0.0,91,0.00,,,0.00,WUHU216HW,2013-02-14 10:45:00,
2013-02-14 02:50:00,20.5,18.3,27.83,East,90,0.0,0.2,91,0.00,,,0.00,WUHU216HW,2013-02-14 10:50:00,
2013-02-14 02:55:00,20.5,18.3,27.83,East,90,0.0,0.2,91,0.00,,,0.00,WUHU216HW,2013-02-14 10:55:00,
2013-02-14 03:00:00,20.5,18.3,27.83,East,90,0.0,0.0,91,0.00,,,0.00,WUHU216HW,2013-02-14 11:00:00,
2013-02-14 03:05:00,20.5,18.3,27.84,ESE,113,0.0,0.2,91,0.00,,,0.00,WUHU216HW,2013-02-14 11:05:00,
2013-02-14 03:10:00,20.5,18.3,27.84,ESE,113,0.0,0.2,91,0.00,,,0.00,WUHU216HW,2013-02-14 11:10:00,
2013-02-14 03:15:00,20.5,18.3,27.84,ESE,113,0.0,0.0,91,0.00,,,0.00,WUHU216HW,2013-02-14 11:15:00,
2013-02-14 03:20:00,20.5,18.3,27.83,ENE,68,0.2,0.2,91,0.00,,,0.00,WUHU216HW,2013-02-14 11:20:00,
2013-02-14 03:25:00,20.3,18.1,27.83,ENE,68,0.0,0.4,91,0.00,,,0.00,WUHU216HW,2013-02-14 11:25:00,
2013-02-14 03:30:00,20.3,18.1,27.83,ENE,68,0.0,0.4,91,0.00,,,0.00,WUHU216HW,2013-02-14 11:30:00,
2013-02-14 03:35:00,20.2,17.6,27.83,ENE,68,0.0,0.0,90,0.00,,,0.00,WUHU216HW,2013-02-14 11:35:00,
2013-02-14 03:40:00,20.2,17.6,27.83,ENE,68,0.0,0.0,90,0.00,,,0.00,WUHU216HW,2013-02-14 11:40:00,
2013-02-14 03:45:00,20.2,17.6,27.84,ENE,68,0.0,0.0,90,0.00,,,0.00,WUHU216HW,2013-02-14 11:45:00,
2013-02-14 03:50:00,20.2,17.6,27.84,ENE,68,0.0,0.0,90,0.00,,,0.00,WUHU216HW,2013-02-14 11:50:00,
2013-02-14 03:55:00,20.2,17.6,27.84,ESE,113,0.0,0.0,90,0.00,,,0.00,WUHU216HW,2013-02-14 11:55:00,
2013-02-14 04:00:00,20.2,17.6,27.84,ESE,113,0.0,0.0,90,0.00,,,0.00,WUHU216HW,2013-02-14 12:00:00,
2013-02-14 04:05:00,20.2,17.6,27.84,East,90,0.0,0.0,90,0.00,,,0.00,WUHU216HW,2013-02-14 12:05:00,
2013-02-14 04:10:00,20.3,18.4,27.84,East,90,0.0,0.0,92,0.00,,,0.00,WUHU216HW,2013-02-14 12:10:00,
2013-02-14 04:15:00,20.3,18.4,27.84,East,90,0.0,0.0,92,0.00,,,0.00,WUHU216HW,2013-02-14 12:15:00,
2013-02-14 04:20:00,20.5,18.6,27.84,East,90,0.0,0.0,92,0.00,,,0.00,WUHU216HW,2013-02-14 12:20:00,
2013-02-14 04:25:00,20.5,18.6,27.85,ENE,68,0.0,0.0,92,0.00,,,0.00,WUHU216HW,2013-02-14 12:25:00,
2013-02-14 04:30:00,20.5,18.6,27.84,ESE,113,0.0,0.0,92,0.00,,,0.00,WUHU216HW,2013-02-14 12:30:00,
2013-02-14 04:35:00,20.5,18.6,27.85,ESE,113,0.0,0.4,92,0.00,,,0.00,WUHU216HW,2013-02-14 12:35:00,
2013-02-14 04:40:00,20.5,18.3,27.84,East,90,0.0,0.4,91,0.00,,,0.00,WUHU216HW,2013-02-14 12:40:00,
2013-02-14 04:45:00,20.7,18.7,27.85,East,90,0.0,0.0,92,0.00,,,0.00,WUHU216HW,2013-02-14 12:45:00,
2013-02-14 04:50:00,21.1,19.1,27.85,ESE,113,0.0,1.1,92,0.00,,,0.00,WUHU216HW,2013-02-14 12:50:00,
2013-02-14 04:55:00,21.2,19.3,27.85,NE,45,0.4,1.1,92,0.00,,,0.00,WUHU216HW,2013-02-14 12:55:00,
2013-02-14 05:00:00,21.2,19.3,27.85,NE,45,0.4,0.4,92,0.00,,,0.00,WUHU216HW,2013-02-14 13:00:00,
2013-02-14 05:05:00,21.4,19.5,27.85,NE,45,0.0,0.4,92,0.00,,,0.00,WUHU216HW,2013-02-14 13:05:00,
2013-02-14 05:10:00,21.6,19.6,27.85,NE,45,0.0,0.0,92,0.00,,,0.00,WUHU216HW,2013-02-14 13:10:00,
2013-02-14 05:15:00,21.8,19.8,27.85,NE,45,0.0,0.0,92,0.00,,,0.00,WUHU216HW,2013-02-14 13:15:00,
2013-02-14 05:20:00,21.8,19.8,27.85,SE,135,0.2,1.1,92,0.00,,,0.00,WUHU216HW,2013-02-14 13:20:00,
2013-02-14 05:25:00,21.8,19.8,27.85,SE,135,0.0,1.1,92,0.00,,,0.00,WUHU216HW,2013-02-14 13:25:00,
2013-02-14 05:30:00,22.0,20.0,27.86,SE,135,0.0,0.0,92,0.00,,,0.00,WUHU216HW,2013-02-14 13:30:00,
2013-02-14 05:35:00,22.3,20.5,27.86,SE,135,0.4,0.4,93,0.00,,,0.00,WUHU216HW,2013-02-14 13:35:00,
2013-02-14 05:40:00,22.7,20.9,27.86,ESE,113,0.2,0.7,93,0.00,,,0.00,WUHU216HW,2013-02-14 13:40:00,
2013-02-14 05:45:00,22.9,21.1,27.86,ESE,113,0.4,0.7,93,0.00,,,0.00,WUHU216HW,2013-02-14 13:45:00,
2013-02-14 05:50:00,23.0,21.1,27.85,ESE,113,0.0,0.4,92,0.00,,,0.00,WUHU216HW,2013-02-14 13:50:00,
2013-02-14 05:55:00,23.0,21.1,27.86,NE,45,0.2,0.2,92,0.00,,,0.00,WUHU216HW,2013-02-14 13:55:00,
2013-02-14 06:00:00,23.0,21.1,27.85,NE,45,0.0,0.4,92,0.00,,,0.00,WUHU216HW,2013-02-14 14:00:00,
2013-02-14 06:05:00,22.9,20.9,27.86,NE,45,0.0,0.4,92,0.00,,,0.00,WUHU216HW,2013-02-14 14:05:00,
2013-02-14 06:10:00,22.9,20.9,27.86,NE,45,0.0,0.0,92,0.00,,,0.00,WUHU216HW,2013-02-14 14:10:00,
2013-02-14 06:15:00,23.0,21.1,27.86,NE,45,0.0,0.0,92,0.00,,,0.00,WUHU216HW,2013-02-14 14:15:00,
2013-02-14 06:20:00,23.2,21.3,27.86,NE,45,0.0,0.0,92,0.00,,,0.00,WUHU216HW,2013-02-14 14:20:00,
2013-02-14 06:25:00,23.2,21.3,27.87,NE,45,0.0,0.0,92,0.00,,,0.00,WUHU216HW,2013-02-14 14:25:00,
2013-02-14 06:30:00,23.4,21.4,27.87,NE,45,0.0,0.0,92,0.00,,,0.00,WUHU216HW,2013-02-14 14:30:00,
2013-02-14 06:35:00,23.6,21.6,27.87,NE,45,0.0,0.0,92,0.00,,,0.00,WUHU216HW,2013-02-14 14:35:00,
2013-02-14 06:40:00,23.8,21.8,27.87,NE,45,0.0,0.0,92,0.00,,,0.00,WUHU216HW,2013-02-14 14:40:00,
2013-02-14 06:45:00,23.9,22.0,27.87,ESE,113,0.0,0.4,92,0.00,,,0.00,WUHU216HW,2013-02-14 14:45:00,
2013-02-14 06:50:00,23.9,22.0,27.87,East,90,0.0,0.4,92,0.00,,,0.00,WUHU216HW,2013-02-14 14:50:00,
2013-02-14 06:55:00,23.9,22.0,27.87,SE,135,0.0,0.2,92,0.00,,,0.00,WUHU216HW,2013-02-14 14:55:00,
2013-02-14 07:00:00,23.8,21.8,27.87,ESE,113,0.0,0.2,92,0.00,,,0.00,WUHU216HW,2013-02-14 15:00:00,
2013-02-14 07:05:00,23.8,21.8,27.87,SE,135,0.0,0.0,92,0.00,,,0.00,WUHU216HW,2013-02-14 15:05:00,
2013-02-14 07:10:00,23.8,21.8,27.87,SE,135,0.0,0.0,92,0.00,,,0.00,WUHU216HW,2013-02-14 15:10:00,
2013-02-14 07:15:00,23.8,21.8,27.87,SE,135,0.0,0.0,92,0.00,,,0.00,WUHU216HW,2013-02-14 15:15:00,
2013-02-14 07:20:00,23.8,21.8,27.88,SE,135,0.0,0.0,92,0.00,,,0.00,WUHU216HW,2013-02-14 15:20:00,
2013-02-14 07:25:00,23.9,22.0,27.88,SE,135,0.0,0.0,92,0.00,,,0.00,WUHU216HW,2013-02-14 15:25:00,
2013-02-14 07:30:00,24.1,22.2,27.88,SE,135,0.0,0.0,92,0.00,,,0.00,WUHU216HW,2013-02-14 15:30:00,
2013-02-14 07:35:00,24.1,22.2,27.88,ESE,113,0.0,0.0,92,0.00,,,0.00,WUHU216HW,2013-02-14 15:35:00,
2013-02-14 07:40:00,24.3,22.3,27.88,ESE,113,0.0,0.0,92,0.00,,,0.00,WUHU216HW,2013-02-14 15:40:00,
2013-02-14 07:45:00,24.5,22.5,27.88,ESE,113,0.0,0.0,92,0.00,,,0.00,WUHU216HW,2013-02-14 15:45:00,
2013-02-14 07:50:00,24.7,22.7,27.88,ESE,113,0.0,0.0,92,0.00,,,0.00,WUHU216HW,2013-02-14 15:50:00,
2013-02-14 07:55:00,24.8,22.9,27.88,ESE,113,0.0,0.0,92,0.00,,,0.00,WUHU216HW,2013-02-14 15:55:00,
2013-02-14 08:00:00,25.4,23.4,27.88,ENE,68,0.0,0.0,92,0.00,,,0.00,WUHU216HW,2013-02-14 16:00:00,
2013-02-14 08:05:00,25.7,23.8,27.89,ENE,68,0.0,0.0,92,0.00,,,0.00,WUHU216HW,2013-02-14 16:05:00,
2013-02-14 08:10:00,25.9,24.0,27.89,ENE,68,0.0,0.0,92,0.00,,,0.00,WUHU216HW,2013-02-14 16:10:00,
2013-02-14 08:15:00,26.3,24.3,27.89,ENE,68,0.0,0.0,92,0.00,,,0.00,WUHU216HW,2013-02-14 16:15:00,
2013-02-14 08:20:00,26.8,24.9,27.89,SE,135,0.0,0.0,92,0.00,,,0.00,WUHU216HW,2013-02-14 16:20:00,
2013-02-14 08:25:00,27.2,25.4,27.89,NE,45,0.0,0.0,93,0.00,,,0.00,WUHU216HW,2013-02-14 16:25:00,
2013-02-14 08:30:00,27.7,25.9,27.89,SE,135,0.0,0.2,93,0.00,,,0.00,WUHU216HW,2013-02-14 16:30:00,
2013-02-14 08:35:00,28.4,26.9,27.89,SE,135,0.4,1.1,94,0.00,,,0.00,WUHU216HW,2013-02-14 16:35:00,
2013-02-14 08:40:00,29.2,27.6,27.89,ENE,68,0.0,1.1,94,0.00,,,0.00,WUHU216HW,2013-02-14 16:40:00,
2013-02-14 08:45:00,29.5,27.7,27.89,SE,135,0.2,0.4,93,0.00,,,0.00,WUHU216HW,2013-02-14 16:45:00,
2013-02-14 08:50:00,30.1,28.5,27.89,SE,135,0.9,1.3,94,0.00,,,0.00,WUHU216HW,2013-02-14 16:50:00,
2013-02-14 08:55:00,30.8,29.0,27.89,SSE,158,1.8,1.8,93,0.00,,,0.00,WUHU216HW,2013-02-14 16:55:00,
2013-02-14 09:00:00,31.3,29.4,27.89,ESE,113,1.1,2.5,92,0.00,,,0.00,WUHU216HW,2013-02-14 17:00:00,
2013-02-14 09:05:00,31.7,29.7,27.90,ESE,113,0.9,2.5,92,0.00,,,0.00,WUHU216HW,2013-02-14 17:05:00,
2013-02-14 09:10:00,32.0,30.1,27.90,SE,135,1.1,1.6,92,0.00,,,0.00,WUHU216HW,2013-02-14 17:10:00,
2013-02-14 09:16:00,32.6,30.5,27.90,SE,135,1.1,1.6,92,0.00,,,0.00,WUHU216HW,2013-02-14 17:16:00,
2013-02-14 09:21:00,32.8,30.2,27.90,ESE,113,0.4,1.8,90,0.00,,,0.00,WUHU216HW,2013-02-14 17:21:00,
2013-02-14 09:26:00,33.3,30.7,27.90,ESE,113,1.1,1.8,90,0.00,,,0.00,WUHU216HW,2013-02-14 17:26:00,
2013-02-14 09:31:00,33.8,30.9,27.91,ESE,113,0.9,1.1,89,0.00,,,0.00,WUHU216HW,2013-02-14 17:31:00,
2013-02-14 09:36:00,34.0,30.8,27.91,SSE,158,0.0,1.1,88,0.00,,,0.00,WUHU216HW,2013-02-14 17:36:00,
2013-02-14 09:41:00,34.2,31.0,27.91,South,180,1.1,1.1,88,0.00,,,0.00,WUHU216HW,2013-02-14 17:41:00,
2013-02-14 09:46:00,34.4,30.5,27.91,South,180,0.0,1.1,86,0.00,,,0.00,WUHU216HW,2013-02-14 17:46:00,
2013-02-14 09:51:00,35.1,31.2,27.91,SSE,158,1.1,1.1,86,0.00,,,0.00,WUHU216HW,2013-02-14 17:51:00,
2013-02-14 09:56:00,35.6,31.5,27.91,SE,135,1.1,1.6,85,0.00,,,0.00,WUHU216HW,2013-02-14 17:56:00,
2013-02-14 10:01:00,36.0,32.1,27.91,ESE,113,0.4,1.6,86,0.00,,,0.00,WUHU216HW,2013-02-14 18:01:00,
2013-02-14 10:06:00,36.4,32.0,27.91,South,180,1.6,1.8,84,0.00,,,0.00,WUHU216HW,2013-02-14 18:06:00,
2013-02-14 10:11:00,36.7,31.7,27.91,SW,225,0.4,1.8,82,0.00,,,0.00,WUHU216HW,2013-02-14 18:11:00,
2013-02-14 10:16:00,37.1,32.0,27.91,SE,135,0.7,1.1,82,0.00,,,0.00,WUHU216HW,2013-02-14 18:16:00,
2013-02-14 10:21:00,37.6,32.0,27.91,SW,225,0.7,1.3,80,0.00,,,0.00,WUHU216HW,2013-02-14 18:21:00,
2013-02-14 10:26:00,38.3,32.1,27.91,SE,135,1.6,1.6,78,0.00,,,0.00,WUHU216HW,2013-02-14 18:26:00,
2013-02-14 10:31:00,38.7,32.8,27.91,SE,135,1.8,1.8,79,0.00,,,0.00,WUHU216HW,2013-02-14 18:31:00,
2013-02-14 10:36:00,39.6,33.7,27.91,ESE,113,0.2,1.8,79,0.00,,,0.00,WUHU216HW,2013-02-14 18:36:00,
2013-02-14 10:41:00,40.0,32.7,27.91,SSW,203,2.9,2.9,75,0.00,,,0.00,WUHU216HW,2013-02-14 18:41:00,
2013-02-14 10:46:00,40.1,33.1,27.91,SSW,203,1.8,2.9,76,0.00,,,0.00,WUHU216HW,2013-02-14 18:46:00,
2013-02-14 10:51:00,40.5,33.1,27.91,SSE,158,1.8,1.8,75,0.00,,,0.00,WUHU216HW,2013-02-14 18:51:00,
2013-02-14 10:56:00,40.7,33.0,27.91,SSE,158,1.3,1.8,74,0.00,,,0.00,WUHU216HW,2013-02-14 18:56:00,
2013-02-14 11:01:00,40.9,33.1,27.91,SSE,158,0.9,2.0,74,0.00,,,0.00,WUHU216HW,2013-02-14 19:01:00,
2013-02-14 11:06:00,41.2,33.2,27.91,SE,135,2.2,3.8,73,0.00,,,0.00,WUHU216HW,2013-02-14 19:06:00,
2013-02-14 11:11:00,42.1,33.8,27.91,ESE,113,1.6,3.8,72,0.00,,,0.00,WUHU216HW,2013-02-14 19:11:00,
2013-02-14 11:16:00,42.1,33.5,27.91,ESE,113,0.7,2.5,71,0.00,,,0.00,WUHU216HW,2013-02-14 19:16:00,
2013-02-14 11:21:00,41.9,33.3,27.91,WSW,248,2.0,2.5,71,0.00,,,0.00,WUHU216HW,2013-02-14 19:21:00,
2013-02-14 11:26:00,42.3,33.3,27.91,SSW,203,2.5,3.4,70,0.00,,,0.00,WUHU216HW,2013-02-14 19:26:00,
2013-02-14 11:31:00,42.3,33.3,27.91,South,180,1.3,3.4,70,0.00,,,0.00,WUHU216HW,2013-02-14 19:31:00,
2013-02-14 11:36:00,42.5,33.1,27.91,SW,225,2.5,2.7,69,0.00,,,0.00,WUHU216HW,2013-02-14 19:36:00,
2013-02-14 11:41:00,41.8,32.0,27.91,SW,225,3.6,3.8,68,0.00,,,0.00,WUHU216HW,2013-02-14 19:41:00,
2013-02-14 11:46:00,41.2,32.6,27.90,WSW,248,3.1,3.8,71,0.00,,,0.00,WUHU216HW,2013-02-14 19:46:00,
2013-02-14 11:51:00,41.4,32.8,27.90,SW,225,2.0,4.9,71,0.00,,,0.00,WUHU216HW,2013-02-14 19:51:00,
2013-02-14 11:56:00,41.4,32.8,27.90,SW,225,1.6,4.9,71,0.00,,,0.00,WUHU216HW,2013-02-14 19:56:00,
2013-02-14 12:01:00,41.8,32.8,27.90,SW,225,1.1,2.9,70,0.00,,,0.00,WUHU216HW,2013-02-14 20:01:00,
2013-02-14 12:06:00,42.1,33.1,27.90,SW,225,1.1,2.9,70,0.00,,,0.00,WUHU216HW,2013-02-14 20:06:00,
2013-02-14 12:11:00,41.9,33.3,27.90,North,0,0.2,1.6,71,0.00,,,0.00,WUHU216HW,2013-02-14 20:11:00,
2013-02-14 12:16:00,41.8,32.4,27.90,WSW,248,1.3,1.6,69,0.00,,,0.00,WUHU216HW,2013-02-14 20:16:00,
2013-02-14 12:21:00,41.6,32.2,27.90,SSW,203,1.8,2.2,69,0.00,,,0.00,WUHU216HW,2013-02-14 20:21:00,
2013-02-14 12:26:00,41.4,31.7,27.90,WSW,248,2.2,2.2,68,0.00,,,0.00,WUHU216HW,2013-02-14 20:26:00,
2013-02-14 12:31:00,41.6,31.8,27.90,SE,135,1.3,2.5,68,0.00,,,0.00,WUHU216HW,2013-02-14 20:31:00,
2013-02-14 12:36:00,42.1,32.0,27.90,WSW,248,2.5,2.5,67,0.00,,,0.00,WUHU216HW,2013-02-14 20:36:00,
2013-02-14 12:41:00,42.1,31.6,27.90,SW,225,2.9,2.9,66,0.00,,,0.00,WUHU216HW,2013-02-14 20:41:00,
2013-02-14 12:46:00,41.9,31.0,27.90,WSW,248,2.7,2.9,65,0.00,,,0.00,WUHU216HW,2013-02-14 20:46:00,
2013-02-14 12:51:00,41.9,31.4,27.90,SE,135,0.9,2.7,66,0.00,,,0.00,WUHU216HW,2013-02-14 20:51:00,
2013-02-14 12:56:00,42.1,31.6,27.90,SW,225,2.5,3.4,66,0.00,,,0.00,WUHU216HW,2013-02-14 20:56:00,
2013-02-14 13:01:00,42.5,32.0,27.90,SW,225,0.7,3.4,66,0.00,,,0.00,WUHU216HW,2013-02-14 21:01:00,
2013-02-14 13:06:00,42.8,32.2,27.90,SSW,203,1.1,2.9,66,0.00,,,0.00,WUHU216HW,2013-02-14 21:06:00,
2013-02-14 13:11:00,43.2,31.8,27.90,South,180,1.3,2.9,64,0.00,,,0.00,WUHU216HW,2013-02-14 21:11:00,
2013-02-14 13:16:00,43.0,31.2,27.90,SE,135,0.9,1.8,63,0.00,,,0.00,WUHU216HW,2013-02-14 21:16:00,
2013-02-14 13:21:00,42.8,31.9,27.89,WNW,293,0.0,1.8,65,0.00,,,0.00,WUHU216HW,2013-02-14 21:21:00,
2013-02-14 13:26:00,42.8,31.5,27.89,SSE,158,1.3,1.3,64,0.00,,,0.00,WUHU216HW,2013-02-14 21:26:00,
2013-02-14 13:31:00,43.0,31.2,27.89,SW,225,3.1,3.1,63,0.00,,,0.00,WUHU216HW,2013-02-14 21:31:00,
2013-02-14 13:36:00,43.0,30.9,27.89,South,180,0.7,3.4,62,0.00,,,0.00,WUHU216HW,2013-02-14 21:36:00,
2013-02-14 13:41:00,42.8,30.7,27.89,SW,225,1.8,3.4,62,0.00,,,0.00,WUHU216HW,2013-02-14 21:41:00,
2013-02-14 13:46:00,42.8,30.7,27.89,WSW,248,2.7,2.7,62,0.00,,,0.00,WUHU216HW,2013-02-14 21:46:00,
2013-02-14 13:51:00,42.7,30.9,27.89,SW,225,2.9,2.9,63,0.00,,,0.00,WUHU216HW,2013-02-14 21:51:00,
2013-02-14 13:56:00,42.5,30.7,27.89,SW,225,2.5,2.9,63,0.00,,,0.00,WUHU216HW,2013-02-14 21:56:00,
2013-02-14 14:01:00,42.1,30.8,27.90,SW,225,1.8,2.9,64,0.00,,,0.00,WUHU216HW,2013-02-14 22:01:00,
2013-02-14 14:06:00,42.3,31.8,27.89,SW,225,3.4,3.4,66,0.00,,,0.00,WUHU216HW,2013-02-14 22:06:00,
2013-02-14 14:11:00,42.3,31.8,27.90,SSW,203,1.8,3.4,66,0.00,,,0.00,WUHU216HW,2013-02-14 22:11:00,
2013-02-14 14:16:00,42.1,32.3,27.90,SSE,158,1.1,3.1,68,0.00,,,0.00,WUHU216HW,2013-02-14 22:16:00,
2013-02-14 14:21:00,42.1,32.3,27.90,SE,135,0.4,1.8,68,0.00,,,0.00,WUHU216HW,2013-02-14 22:21:00,
2013-02-14 14:26:00,41.9,31.8,27.90,South,180,0.9,2.0,67,0.00,,,0.00,WUHU216HW,2013-02-14 22:26:00,
2013-02-14 14:31:00,41.9,32.1,27.90,SSW,203,0.4,2.0,68,0.00,,,0.00,WUHU216HW,2013-02-14 22:31:00,
2013-02-14 14:36:00,42.1,32.3,27.90,SSW,203,1.1,2.0,68,0.00,,,0.00,WUHU216HW,2013-02-14 22:36:00,
2013-02-14 14:41:00,42.1,32.3,27.90,SSW,203,0.9,1.6,68,0.00,,,0.00,WUHU216HW,2013-02-14 22:41:00,
2013-02-14 14:46:00,41.9,31.8,27.90,WSW,248,0.7,2.5,67,0.00,,,0.00,WUHU216HW,2013-02-14 22:46:00,
2013-02-14 14:51:00,42.1,32.3,27.90,SW,225,1.8,2.5,68,0.00,,,0.00,WUHU216HW,2013-02-14 22:51:00,
2013-02-14 14:56:00,42.1,32.3,27.90,SW,225,1.8,3.6,68,0.00,,,0.00,WUHU216HW,2013-02-14 22:56:00,
2013-02-14 15:01:00,41.9,31.8,27.90,SSW,203,1.8,3.6,67,0.00,,,0.00,WUHU216HW,2013-02-14 23:01:00,
2013-02-14 15:06:00,41.9,32.1,27.91,WSW,248,1.1,2.2,68,0.00,,,0.00,WUHU216HW,2013-02-14 23:06:00,
2013-02-14 15:11:00,41.9,32.6,27.90,SSW,203,0.4,2.2,69,0.00,,,0.00,WUHU216HW,2013-02-14 23:11:00,
2013-02-14 15:16:00,41.8,32.4,27.91,WSW,248,0.4,2.0,69,0.00,,,0.00,WUHU216HW,2013-02-14 23:16:00,
2013-02-14 15:21:00,41.8,32.8,27.91,SW,225,0.9,2.2,70,0.00,,,0.00,WUHU216HW,2013-02-14 23:21:00,
2013-02-14 15:26:00,41.8,32.8,27.91,SW,225,0.9,2.2,70,0.00,,,0.00,WUHU216HW,2013-02-14 23:26:00,
2013-02-14 15:31:00,41.8,32.8,27.91,SW,225,0.4,1.6,70,0.00,,,0.00,WUHU216HW,2013-02-14 23:31:00,
2013-02-14 15:36:00,41.8,32.8,27.91,WSW,248,2.5,2.5,70,0.00,,,0.00,WUHU216HW,2013-02-14 23:36:00,
2013-02-14 15:41:00,41.6,32.6,27.91,SW,225,1.3,2.5,70,0.00,,,0.00,WUHU216HW,2013-02-14 23:41:00,
2013-02-14 15:46:00,41.6,33.0,27.91,SW,225,1.6,2.0,71,0.00,,,0.00,WUHU216HW,2013-02-14 23:46:00,
2013-02-14 15:51:00,41.4,32.8,27.91,SW,225,0.2,1.8,71,0.00,,,0.00,WUHU216HW,2013-02-14 23:51:00,
2013-02-14 15:56:00,41.4,32.8,27.91,SW,225,0.9,1.8,71,0.00,,,0.00,WUHU216HW,2013-02-14 23:56:00,
2013-02-14 16:01:00,41.4,32.8,27.91,SW,225,0.4,1.1,71,0.00,,,0.00,WUHU216HW,2013-02-15 00:01:00,
2013-02-14 16:06:00,41.4,32.8,27.91,SSW,203,0.7,1.1,71,0.00,,,0.00,WUHU216HW,2013-02-15 00:06:00,
2013-02-14 16:11:00,41.4,31.7,27.91,SW,225,0.9,2.0,68,0.00,,,0.00,WUHU216HW,2013-02-15 00:11:00,
2013-02-14 16:16:00,41.4,32.1,27.91,WSW,248,1.1,2.0,69,0.00,,,0.00,WUHU216HW,2013-02-15 00:16:00,
2013-02-14 16:21:00,41.4,31.7,27.91,West,270,1.6,1.6,68,0.00,,,0.00,WUHU216HW,2013-02-15 00:21:00,
2013-02-14 16:26:00,41.4,32.4,27.91,WSW,248,0.0,1.6,70,0.00,,,0.00,WUHU216HW,2013-02-15 00:26:00,
2013-02-14 16:31:00,41.4,32.1,27.91,SW,225,0.4,0.4,69,0.00,,,0.00,WUHU216HW,2013-02-15 00:31:00,
2013-02-14 16:36:00,41.4,31.7,27.91,SE,135,0.0,0.4,68,0.00,,,0.00,WUHU216HW,2013-02-15 00:36:00,
2013-02-14 16:41:00,41.2,31.9,27.91,East,90,0.0,0.4,69,0.00,,,0.00,WUHU216HW,2013-02-15 00:41:00,
2013-02-14 16:46:00,41.2,32.2,27.91,East,90,0.0,0.4,70,0.00,,,0.00,WUHU216HW,2013-02-15 00:46:00,
2013-02-14 16:51:00,40.7,31.7,27.91,NE,45,0.0,0.0,70,0.00,,,0.00,WUHU216HW,2013-02-15 00:51:00,
2013-02-14 16:56:00,40.0,31.3,27.91,NE,45,0.0,0.0,71,0.00,,,0.00,WUHU216HW,2013-02-15 00:56:00,
2013-02-14 17:01:00,39.6,31.0,27.91,NE,45,0.0,0.0,71,0.00,,,0.00,WUHU216HW,2013-02-15 01:01:00,
2013-02-14 17:06:00,38.9,30.6,27.92,NNE,23,0.0,0.0,72,0.00,,,0.00,WUHU216HW,2013-02-15 01:06:00,
2013-02-14 17:11:00,38.2,30.2,27.91,NNE,23,0.0,0.0,73,0.00,,,0.00,WUHU216HW,2013-02-15 01:11:00,
2013-02-14 17:16:00,37.6,30.1,27.92,NNE,23,0.0,0.0,74,0.00,,,0.00,WUHU216HW,2013-02-15 01:16:00,
2013-02-14 17:21:00,37.1,29.5,27.91,NNE,23,0.0,0.0,74,0.00,,,0.00,WUHU216HW,2013-02-15 01:21:00,
2013-02-14 17:26:00,36.2,28.6,27.91,East,90,0.0,0.0,74,0.00,,,0.00,WUHU216HW,2013-02-15 01:26:00,
2013-02-14 17:31:00,35.6,28.4,27.91,East,90,0.0,0.0,75,0.00,,,0.00,WUHU216HW,2013-02-15 01:31:00,
2013-02-14 17:36:00,35.1,28.3,27.91,East,90,0.0,0.0,76,0.00,,,0.00,WUHU216HW,2013-02-15 01:36:00,
2013-02-14 17:41:00,34.6,27.7,27.91,East,90,0.0,0.0,76,0.00,,,0.00,WUHU216HW,2013-02-15 01:41:00,
2013-02-14 17:46:00,34.0,27.2,27.91,East,90,0.0,0.0,76,0.00,,,0.00,WUHU216HW,2013-02-15 01:46:00,
2013-02-14 17:51:00,33.5,27.0,27.91,East,90,0.0,0.0,77,0.00,,,0.00,WUHU216HW,2013-02-15 01:51:00,
2013-02-14 17:56:00,33.1,27.3,27.91,East,90,0.2,0.2,79,0.00,,,0.00,WUHU216HW,2013-02-15 01:56:00,
2013-02-14 18:01:00,32.8,27.3,27.91,East,90,0.4,0.4,80,0.00,,,0.00,WUHU216HW,2013-02-15 02:01:00,
2013-02-14 18:06:00,32.4,27.0,27.91,East,90,0.0,0.4,80,0.00,,,0.00,WUHU216HW,2013-02-15 02:06:00,
2013-02-14 18:11:00,32.0,26.6,27.91,ENE,68,0.0,0.4,80,0.00,,,0.00,WUHU216HW,2013-02-15 02:11:00,
2013-02-14 18:16:00,31.5,26.4,27.91,ENE,68,0.0,0.4,81,0.00,,,0.00,WUHU216HW,2013-02-15 02:16:00,
2013-02-14 18:21:00,31.3,26.2,27.91,ENE,68,0.0,0.0,81,0.00,,,0.00,WUHU216HW,2013-02-15 02:21:00,
2013-02-14 18:26:00,30.8,25.7,27.91,ENE,68,0.0,0.0,81,0.00,,,0.00,WUHU216HW,2013-02-15 02:26:00,
2013-02-14 18:31:00,30.6,25.5,27.91,ENE,68,0.0,0.0,81,0.00,,,0.00,WUHU216HW,2013-02-15 02:31:00,
2013-02-14 18:36:00,30.1,25.2,27.91,ENE,68,0.0,0.0,82,0.00,,,0.00,WUHU216HW,2013-02-15 02:36:00,
2013-02-14 18:41:00,30.1,25.6,27.91,ENE,68,0.0,0.0,83,0.00,,,0.00,WUHU216HW,2013-02-15 02:41:00,
2013-02-14 18:46:00,29.9,25.7,27.91,ENE,68,0.0,0.0,84,0.00,,,0.00,WUHU216HW,2013-02-15 02:46:00,
2013-02-14 18:51:00,29.9,25.7,27.91,ENE,68,0.0,0.0,84,0.00,,,0.00,WUHU216HW,2013-02-15 02:51:00,
2013-02-14 18:56:00,29.5,25.3,27.91,ESE,113,0.0,0.0,84,0.00,,,0.00,WUHU216HW,2013-02-15 02:56:00,
2013-02-14 19:01:00,29.3,25.1,27.91,ESE,113,0.0,0.0,84,0.00,,,0.00,WUHU216HW,2013-02-15 03:01:00,
2013-02-14 19:06:00,29.0,24.8,27.91,East,90,0.0,0.0,84,0.00,,,0.00,WUHU216HW,2013-02-15 03:06:00,
2013-02-14 19:11:00,28.8,24.8,27.91,East,90,0.0,0.0,85,0.00,,,0.00,WUHU216HW,2013-02-15 03:11:00,
2013-02-14 19:16:00,28.6,24.7,27.91,East,90,0.0,0.2,85,0.00,,,0.00,WUHU216HW,2013-02-15 03:16:00,
2013-02-14 19:20:00,28.4,24.8,27.91,East,90,0.0,0.2,86,0.00,,,0.00,WUHU216HW,2013-02-15 03:20:00,
2013-02-14 19:25:00,28.4,24.8,27.91,East,90,0.0,0.0,86,0.00,,,0.00,WUHU216HW,2013-02-15 03:25:00,
2013-02-14 19:31:00,28.3,24.6,27.91,East,90,0.0,0.0,86,0.00,,,0.00,WUHU216HW,2013-02-15 03:31:00,
2013-02-14 19:35:00,28.1,24.7,27.92,East,90,0.0,0.0,87,0.00,,,0.00,WUHU216HW,2013-02-15 03:35:00,
2013-02-14 19:41:00,27.9,24.2,27.92,East,90,0.0,0.0,86,0.00,,,0.00,WUHU216HW,2013-02-15 03:41:00,
2013-02-14 19:46:00,27.7,23.8,27.92,East,90,0.0,0.0,85,0.00,,,0.00,WUHU216HW,2013-02-15 03:46:00,
2013-02-14 19:51:00,27.5,23.6,27.92,East,90,0.0,0.0,85,0.00,,,0.00,WUHU216HW,2013-02-15 03:51:00,
2013-02-14 19:56:00,27.4,23.4,27.92,East,90,0.0,0.0,85,0.00,,,0.00,WUHU216HW,2013-02-15 03:56:00,
2013-02-14 20:01:00,27.4,23.7,27.92,East,90,0.0,0.0,86,0.00,,,0.00,WUHU216HW,2013-02-15 04:01:00,
2013-02-14 20:06:00,27.2,23.5,27.92,East,90,0.0,0.0,86,0.00,,,0.00,WUHU216HW,2013-02-15 04:06:00,
2013-02-14 20:11:00,27.0,23.6,27.92,ENE,68,0.0,0.0,87,0.00,,,0.00,WUHU216HW,2013-02-15 04:11:00,
2013-02-14 20:16:00,27.2,23.8,27.92,East,90,0.0,0.0,87,0.00,,,0.00,WUHU216HW,2013-02-15 04:16:00,
2013-02-14 20:21:00,27.0,23.6,27.92,East,90,0.0,0.0,87,0.00,,,0.00,WUHU216HW,2013-02-15 04:21:00,
2013-02-14 20:26:00,27.0,23.6,27.92,East,90,0.0,0.0,87,0.00,,,0.00,WUHU216HW,2013-02-15 04:26:00,
2013-02-14 20:31:00,27.0,24.0,27.92,East,90,0.0,0.4,88,0.00,,,0.00,WUHU216HW,2013-02-15 04:31:00,
2013-02-14 20:35:00,27.0,24.0,27.93,ESE,113,0.0,0.4,88,0.00,,,0.00,WUHU216HW,2013-02-15 04:35:00,
2013-02-14 20:40:00,26.6,23.6,27.93,ESE,113,0.0,0.0,88,0.00,,,0.00,WUHU216HW,2013-02-15 04:40:00,
2013-02-14 20:45:00,26.6,23.6,27.93,ESE,113,0.0,0.0,88,0.00,,,0.00,WUHU216HW,2013-02-15 04:45:00,
2013-02-14 20:50:00,26.6,23.6,27.93,ESE,113,0.0,0.0,88,0.00,,,0.00,WUHU216HW,2013-02-15 04:50:00,
2013-02-14 20:55:00,26.5,23.4,27.93,ESE,113,0.0,0.0,88,0.00,,,0.00,WUHU216HW,2013-02-15 04:55:00,
2013-02-14 21:00:00,26.3,23.2,27.94,ESE,113,0.0,0.0,88,0.00,,,0.00,WUHU216HW,2013-02-15 05:00:00,
2013-02-14 21:05:00,26.3,23.2,27.94,ESE,113,0.0,0.0,88,0.00,,,0.00,WUHU216HW,2013-02-15 05:05:00,
2013-02-14 21:10:00,26.3,23.2,27.94,ESE,113,0.0,0.0,88,0.00,,,0.00,WUHU216HW,2013-02-15 05:10:00,
2013-02-14 21:15:00,26.3,23.5,27.94,ESE,113,0.0,0.0,89,0.00,,,0.00,WUHU216HW,2013-02-15 05:15:00,
2013-02-14 21:20:00,26.3,23.5,27.94,ESE,113,0.0,0.0,89,0.00,,,0.00,WUHU216HW,2013-02-15 05:20:00,
2013-02-14 21:25:00,26.3,23.5,27.94,ESE,113,0.0,0.0,89,0.00,,,0.00,WUHU216HW,2013-02-15 05:25:00,
2013-02-14 21:30:00,26.1,23.3,27.94,ESE,113,0.0,0.0,89,0.00,,,0.00,WUHU216HW,2013-02-15 05:30:00,
2013-02-14 21:35:00,26.1,23.3,27.95,ESE,113,0.0,0.0,89,0.00,,,0.00,WUHU216HW,2013-02-15 05:35:00,
2013-02-14 21:40:00,26.1,23.3,27.95,ESE,113,0.0,0.0,89,0.00,,,0.00,WUHU216HW,2013-02-15 05:40:00,
2013-02-14 21:45:00,25.9,23.1,27.95,ESE,113,0.0,0.0,89,0.00,,,0.00,WUHU216HW,2013-02-15 05:45:00,
2013-02-14 21:50:00,25.9,23.1,27.95,East,90,0.0,0.0,89,0.00,,,0.00,WUHU216HW,2013-02-15 05:50:00,
2013-02-14 21:55:00,25.7,23.0,27.95,ESE,113,0.0,0.0,89,0.00,,,0.00,WUHU216HW,2013-02-15 05:55:00,
2013-02-14 22:00:00,25.7,23.2,27.95,ESE,113,0.2,0.2,90,0.00,,,0.00,WUHU216HW,2013-02-15 06:00:00,
2013-02-14 22:05:00,25.6,23.0,27.94,ESE,113,0.0,0.4,90,0.00,,,0.00,WUHU216HW,2013-02-15 06:05:00,
2013-02-14 22:10:00,25.6,22.8,27.94,ESE,113,0.0,0.4,89,0.00,,,0.00,WUHU216HW,2013-02-15 06:10:00,
2013-02-14 22:15:00,25.6,23.0,27.94,ESE,113,0.0,0.0,90,0.00,,,0.00,WUHU216HW,2013-02-15 06:15:00,
2013-02-14 22:20:00,25.4,22.6,27.95,ESE,113,0.0,0.0,89,0.00,,,0.00,WUHU216HW,2013-02-15 06:20:00,
2013-02-14 22:25:00,25.4,23.1,27.95,ESE,113,0.0,0.0,91,0.00,,,0.00,WUHU216HW,2013-02-15 06:25:00,
2013-02-14 22:30:00,25.2,22.7,27.95,ESE,113,0.0,0.0,90,0.00,,,0.00,WUHU216HW,2013-02-15 06:30:00,
2013-02-14 22:35:00,25.0,22.2,27.95,ESE,113,0.0,0.0,89,0.00,,,0.00,WUHU216HW,2013-02-15 06:35:00,
2013-02-14 22:41:00,25.0,22.0,27.95,ESE,113,0.0,0.0,88,0.00,,,0.00,WUHU216HW,2013-02-15 06:41:00,
2013-02-14 22:46:00,24.8,21.8,27.95,ESE,113,0.0,0.0,88,0.00,,,0.00,WUHU216HW,2013-02-15 06:46:00,
2013-02-14 22:51:00,24.8,21.8,27.96,ESE,113,0.0,0.0,88,0.00,,,0.00,WUHU216HW,2013-02-15 06:51:00,
2013-02-14 22:56:00,24.8,21.8,27.96,ESE,113,0.0,0.0,88,0.00,,,0.00,WUHU216HW,2013-02-15 06:56:00,
2013-02-14 23:01:00,24.8,22.1,27.96,ESE,113,0.0,0.0,89,0.00,,,0.00,WUHU216HW,2013-02-15 07:01:00,
2013-02-14 23:06:00,24.8,22.1,27.96,ESE,113,0.0,0.0,89,0.00,,,0.00,WUHU216HW,2013-02-15 07:06:00,
2013-02-14 23:11:00,24.8,22.3,27.96,ESE,113,0.0,0.0,90,0.00,,,0.00,WUHU216HW,2013-02-15 07:11:00,
2013-02-14 23:16:00,24.7,21.9,27.96,ESE,113,0.0,0.0,89,0.00,,,0.00,WUHU216HW,2013-02-15 07:16:00,
2013-02-14 23:21:00,24.5,21.4,27.96,ESE,113,0.0,0.0,88,0.00,,,0.00,WUHU216HW,2013-02-15 07:21:00,
2013-02-14 23:26:00,24.5,21.4,27.96,ESE,113,0.0,0.0,88,0.00,,,0.00,WUHU216HW,2013-02-15 07:26:00,
2013-02-14 23:31:00,24.3,21.2,27.96,ESE,113,0.0,0.0,88,0.00,,,0.00,WUHU216HW,2013-02-15 07:31:00,
2013-02-14 23:36:00,24.3,21.5,27.96,ESE,113,0.0,0.0,89,0.00,,,0.00,WUHU216HW,2013-02-15 07:36:00,
2013-02-14 23:41:00,24.3,21.5,27.97,ESE,113,0.0,0.0,89,0.00,,,0.00,WUHU216HW,2013-02-15 07:41:00,
2013-02-14 23:46:00,24.3,21.5,27.97,ESE,113,0.0,0.0,89,0.00,,,0.00,WUHU216HW,2013-02-15 07:46:00,
2013-02-14 23:51:00,24.1,21.3,27.96,ESE,113,0.0,0.0,89,0.00,,,0.00,WUHU216HW,2013-02-15 07:51:00,
2013-02-14 23:56:00,24.1,21.3,27.97,ESE,113,0.0,0.0,89,0.00,,,0.00,WUHU216HW,2013-02-15 07:56:00,